Time;durP1;ratioP1;P1;durP2;ratioP2;P2;SDS_P1;SDS_P2;PMS_P1;PMS_P2;Temp;Humidity;BMP_temperature;BMP_pressure;BME280_temperature;BME280_humidity;BME280_pressure;Samples;Min_cycle;Max_cycle;Signal;HPM_P1;HPM_P2
2021/12/18 00:01:47;;;;;;;0.80;0.80;;;;;;;6.03;65.15;101850.40;102437;1319;138488;-78
2021/12/18 00:04:14;;;;;;;0.80;0.80;;;;;;;6.00;65.40;101857.05;102441;1316;95209;-77
2021/12/18 00:06:42;;;;;;;0.80;0.80;;;;;;;6.08;65.09;101862.31;102174;1319;139795;-77
2021/12/18 00:09:10;;;;;;;0.70;0.70;;;;;;;6.14;65.19;101865.91;102336;1316;109250;-78
2021/12/18 00:11:38;;;;;;;0.80;0.80;;;;;;;6.18;64.97;101870.93;102262;1317;109356;-77
2021/12/18 00:14:06;;;;;;;0.80;0.80;;;;;;;6.12;64.83;101867.83;102149;1318;138455;-77
2021/12/18 00:16:33;;;;;;;0.90;0.90;;;;;;;6.09;65.09;101854.37;102233;1317;95688;-77
2021/12/18 00:19:02;;;;;;;0.70;0.70;;;;;;;6.14;65.06;101848.46;102088;1318;140090;-78
2021/12/18 00:21:30;;;;;;;0.80;0.80;;;;;;;6.22;65.01;101843.29;102095;1317;108852;-78
2021/12/18 00:23:58;;;;;;;0.80;0.80;;;;;;;6.21;65.11;101840.45;102245;1316;139998;-78
2021/12/18 00:26:26;;;;;;;0.70;0.70;;;;;;;6.22;65.33;101836.94;102161;1317;95290;-78
2021/12/18 00:28:54;;;;;;;0.80;0.80;;;;;;;6.19;65.03;101842.54;102391;1317;109415;-78
2021/12/18 00:31:22;;;;;;;0.80;0.80;;;;;;;6.20;65.25;101855.25;101745;1317;138929;-79
2021/12/18 00:33:49;;;;;;;0.80;0.80;;;;;;;6.11;65.13;101857.77;102454;1317;95335;-78
2021/12/18 00:36:17;;;;;;;0.90;0.90;;;;;;;6.05;65.41;101863.50;101743;1321;140112;-78
2021/12/18 00:38:45;;;;;;;0.80;0.80;;;;;;;6.10;65.54;101868.14;101822;1320;109413;-77
2021/12/18 00:41:26;;;;;;;0.80;0.80;;;;;;;6.08;65.45;101870.77;101918;1317;110303;-78
2021/12/18 00:44:04;;;;;;;0.80;0.80;;;;;;;5.99;65.40;101878.20;101522;1316;139580;-77
2021/12/18 00:46:37;;;;;;;0.80;0.80;;;;;;;5.93;65.65;101879.11;101460;1317;95254;-78
2021/12/18 00:49:07;;;;;;;0.70;0.70;;;;;;;5.84;65.62;101884.98;101401;1316;140048;-78
2021/12/18 00:51:35;;;;;;;0.90;0.90;;;;;;;5.83;65.95;101884.60;101778;1316;108280;-78
2021/12/18 00:54:03;;;;;;;0.80;0.80;;;;;;;5.78;65.88;101888.22;101805;1318;140383;-79
2021/12/18 00:56:31;;;;;;;0.90;0.90;;;;;;;5.72;66.04;101904.33;101921;1319;95222;-78
2021/12/18 00:58:59;;;;;;;0.80;0.80;;;;;;;5.72;66.33;101902.38;102102;1317;109455;-77
2021/12/18 01:01:28;;;;;;;0.80;0.80;;;;;;;5.72;66.02;101896.39;102003;1316;139726;-77
2021/12/18 01:03:56;;;;;;;0.80;0.80;;;;;;;5.70;66.25;101889.30;102200;1317;95413;-77
2021/12/18 01:06:24;;;;;;;0.70;0.70;;;;;;;5.74;66.02;101890.26;102095;1316;139911;-77
2021/12/18 01:08:56;;;;;;;0.70;0.70;;;;;;;5.75;66.13;101883.93;102161;1317;109287;-77
2021/12/18 01:11:45;;;;;;;0.70;0.70;;;;;;;5.81;66.05;101883.86;102304;1316;110478;-77
2021/12/18 01:24:57;;;;;;;0.70;0.70;;;;;;;5.93;65.85;101885.80;102229;1316;138167;-78
2021/12/18 01:27:25;;;;;;;0.70;0.70;;;;;;;6.00;65.50;101887.37;102327;1316;95166;-78
2021/12/18 01:29:53;;;;;;;0.70;0.70;;;;;;;5.98;64.99;101890.16;102199;1316;140466;-78
2021/12/18 01:32:21;;;;;;;0.70;0.70;;;;;;;5.95;65.12;101889.20;102213;1318;110280;-77
2021/12/18 01:34:49;;;;;;;0.70;0.70;;;;;;;5.88;64.93;101888.73;102293;1316;95288;-78
2021/12/18 01:37:17;;;;;;;0.80;0.80;;;;;;;5.72;65.20;101890.05;102134;1318;144442;-78
2021/12/18 01:39:44;;;;;;;0.90;0.90;;;;;;;5.72;65.61;101890.38;102302;1316;109411;-78
2021/12/18 01:53:11;;;;;;;0.70;0.70;;;;;;;5.56;65.40;101904.03;102160;1318;110956;-77
2021/12/18 01:55:41;;;;;;;0.80;0.80;;;;;;;5.55;65.30;101901.20;102149;1320;141378;-79
2021/12/18 01:58:08;;;;;;;0.90;0.90;;;;;;;5.49;65.45;101907.95;102205;1318;95257;-77
2021/12/18 02:00:41;;;;;;;1.00;1.00;;;;;;;5.56;65.39;101910.90;102086;1318;138053;-78
2021/12/18 02:03:09;;;;;;;0.90;0.90;;;;;;;5.54;65.11;101913.67;102204;1316;110256;-78
2021/12/18 02:05:38;;;;;;;0.80;0.80;;;;;;;5.53;65.20;101915.77;102293;1319;95275;-78
2021/12/18 02:08:05;;;;;;;0.80;0.80;;;;;;;5.51;64.88;101902.70;102223;1317;139683;-78
2021/12/18 02:10:45;;;;;;;0.80;0.80;;;;;;;5.44;65.20;101895.33;102105;1320;109384;-78
2021/12/18 02:21:27;;;;;;;0.90;0.90;;;;;;;5.24;65.33;101898.31;102177;1317;109419;-78
2021/12/18 02:23:56;;;;;;;0.80;0.80;;;;;;;5.37;65.03;101901.90;102243;1317;110354;-77
2021/12/18 02:26:25;;;;;;;0.90;0.90;;;;;;;5.40;64.56;101898.09;102225;1317;139916;-77
2021/12/18 02:28:55;;;;;;;0.80;0.80;;;;;;;5.33;64.46;101897.43;102174;1317;95173;-78
2021/12/18 02:31:23;;;;;;;0.90;0.90;;;;;;;5.31;64.59;101897.91;101969;1318;138941;-78
2021/12/18 02:33:52;;;;;;;0.90;0.90;;;;;;;5.31;64.53;101898.96;102300;1317;109114;-77
2021/12/18 02:36:25;;;;;;;0.80;0.80;;;;;;;5.22;64.22;101893.86;102117;1318;140817;-78
2021/12/18 02:44:04;;;;;;;0.90;0.90;;;;;;;4.92;64.80;101896.95;102193;1318;141285;-78
2021/12/18 02:46:32;;;;;;;0.90;0.90;;;;;;;4.95;64.73;101900.20;102303;1318;95826;-78
2021/12/18 02:49:12;;;;;;;0.90;0.90;;;;;;;4.93;64.92;101893.11;102174;1318;138339;-78
2021/12/18 02:51:40;;;;;;;1.00;1.00;;;;;;;4.92;64.63;101896.08;102289;1318;109365;-78
2021/12/18 02:54:08;;;;;;;1.00;1.00;;;;;;;4.79;64.73;101896.50;102161;1316;140619;-79
2021/12/18 02:56:36;;;;;;;0.90;0.90;;;;;;;4.77;64.85;101893.48;102165;1318;95511;-79
2021/12/18 02:59:08;;;;;;;0.90;0.90;;;;;;;4.81;64.92;101896.55;102204;1317;95247;-78
2021/12/18 03:01:39;;;;;;;0.90;0.90;;;;;;;4.79;64.82;101903.02;102099;1321;139162;-78
2021/12/18 03:04:17;;;;;;;1.00;1.00;;;;;;;4.75;64.75;101905.74;102186;1319;109862;-78
2021/12/18 03:06:50;;;;;;;0.90;0.90;;;;;;;4.77;64.78;101911.23;102002;1320;142952;-78
2021/12/18 03:23:30;;;;;;;1.00;1.00;;;;;;;4.50;66.78;101908.18;102146;1319;108408;-78
2021/12/18 03:26:00;;;;;;;0.90;0.90;;;;;;;4.49;66.77;101896.73;102040;1320;140687;-78
2021/12/18 03:28:29;;;;;;;0.90;0.90;;;;;;;4.51;66.99;101891.30;102254;1318;95275;-78
2021/12/18 03:30:58;;;;;;;0.90;0.90;;;;;;;4.52;67.00;101877.79;102302;1319;138702;-78
2021/12/18 03:33:26;;;;;;;0.90;0.90;;;;;;;4.52;67.06;101871.98;102266;1319;110124;-78
2021/12/18 03:35:55;;;;;;;1.10;1.10;;;;;;;4.61;67.20;101871.84;102252;1318;110064;-78
2021/12/18 03:38:22;;;;;;;0.90;0.90;;;;;;;4.69;67.02;101868.66;102125;1320;140149;-78
2021/12/18 03:40:50;;;;;;;0.90;0.90;;;;;;;4.73;66.76;101869.98;102261;1321;95680;-77
2021/12/18 03:43:18;;;;;;;0.90;0.90;;;;;;;4.80;66.66;101873.48;102131;1319;138621;-78
2021/12/18 03:45:46;;;;;;;0.90;0.90;;;;;;;4.84;66.56;101883.23;102241;1318;110328;-78
2021/12/18 03:48:14;;;;;;;0.90;0.90;;;;;;;4.88;66.77;101886.66;102167;1318;140628;-78
2021/12/18 03:50:45;;;;;;;0.80;0.80;;;;;;;4.92;66.48;101892.21;102120;1319;95245;-78
2021/12/18 03:53:13;;;;;;;0.90;0.90;;;;;;;4.88;66.46;101905.67;102169;1318;109340;-77
2021/12/18 03:55:41;;;;;;;0.90;0.90;;;;;;;4.83;66.76;101902.40;102122;1317;138770;-78
2021/12/18 03:58:09;;;;;;;0.90;0.90;;;;;;;4.83;66.80;101893.94;102244;1319;95813;-78
2021/12/18 04:00:37;;;;;;;0.80;0.80;;;;;;;4.85;66.91;101893.99;102067;1318;140481;-77
2021/12/18 04:03:05;;;;;;;0.90;0.90;;;;;;;4.91;66.92;101896.23;102224;1317;108638;-77
2021/12/18 04:05:33;;;;;;;0.90;0.90;;;;;;;4.93;66.93;101896.98;102240;1318;110177;-77
2021/12/18 04:08:08;;;;;;;0.80;0.80;;;;;;;4.99;66.96;101896.23;102214;1318;139910;-77
2021/12/18 04:10:41;;;;;;;0.80;0.80;;;;;;;5.01;66.72;101887.81;102266;1317;96271;-77
2021/12/18 04:13:09;;;;;;;0.80;0.80;;;;;;;5.03;66.74;101889.95;102207;1318;139530;-77
2021/12/18 04:15:38;;;;;;;0.80;0.80;;;;;;;4.98;66.99;101896.73;102226;1314;109243;-77
2021/12/18 04:18:06;;;;;;;0.90;0.90;;;;;;;5.00;67.07;101895.70;102291;1318;95249;-78
2021/12/18 04:20:34;;;;;;;0.80;0.80;;;;;;;4.98;66.94;101896.90;101995;1318;140233;-77
2021/12/18 04:23:02;;;;;;;0.90;0.90;;;;;;;4.90;67.14;101892.66;102269;1318;109490;-77
2021/12/18 04:25:30;;;;;;;0.90;0.90;;;;;;;4.88;67.32;101888.59;101958;1318;140367;-78
2021/12/18 04:27:58;;;;;;;0.80;0.80;;;;;;;4.93;67.42;101887.27;102190;1318;95252;-78
2021/12/18 04:30:26;;;;;;;0.90;0.90;;;;;;;5.01;67.40;101879.52;102111;1319;139243;-78
2021/12/18 04:32:56;;;;;;;0.80;0.80;;;;;;;5.08;67.22;101879.88;102163;1318;109434;-78
2021/12/18 04:35:24;;;;;;;1.00;1.00;;;;;;;5.10;66.92;101879.55;102165;1319;110234;-78
2021/12/18 04:37:52;;;;;;;0.80;0.80;;;;;;;5.12;67.09;101878.18;102022;1318;138746;-78
2021/12/18 04:40:25;;;;;;;0.80;0.80;;;;;;;5.12;66.77;101877.65;102129;1319;95280;-78
2021/12/18 04:42:54;;;;;;;0.80;0.80;;;;;;;5.04;66.99;101871.67;102031;1318;140338;-78
2021/12/18 04:45:22;;;;;;;0.80;0.80;;;;;;;4.92;67.32;101877.60;102090;1318;110404;-77
2021/12/18 04:47:50;;;;;;;0.90;0.90;;;;;;;4.89;67.47;101875.25;102229;1317;96030;-78
2021/12/18 04:50:18;;;;;;;0.80;0.80;;;;;;;4.91;67.49;101874.04;102069;1318;141346;-78
2021/12/18 04:52:46;;;;;;;0.80;0.80;;;;;;;4.92;67.41;101873.02;102125;1318;109357;-78
2021/12/18 04:55:14;;;;;;;0.90;0.90;;;;;;;4.95;67.43;101865.33;102057;1319;139594;-78
2021/12/18 04:57:42;;;;;;;0.80;0.80;;;;;;;4.93;67.68;101865.66;102490;1317;95713;-77
2021/12/18 05:00:13;;;;;;;0.80;0.80;;;;;;;5.06;67.38;101861.15;102126;1319;95305;-77
2021/12/18 05:02:43;;;;;;;0.80;0.80;;;;;;;5.07;67.31;101861.70;101992;1318;139671;-77
2021/12/18 05:05:14;;;;;;;0.80;0.80;;;;;;;5.06;67.08;101862.93;102171;1318;111038;-77
2021/12/18 05:07:42;;;;;;;0.90;0.90;;;;;;;4.97;67.26;101868.73;102037;1321;139923;-79
2021/12/18 05:10:13;;;;;;;0.90;0.90;;;;;;;4.90;67.32;101877.55;102062;1318;95270;-77
2021/12/18 05:12:41;;;;;;;0.90;0.90;;;;;;;4.93;67.53;101870.77;102052;1320;140083;-78
2021/12/18 05:15:09;;;;;;;0.90;0.90;;;;;;;4.88;67.60;101871.52;102386;1317;110316;-78
2021/12/18 05:17:37;;;;;;;1.00;1.00;;;;;;;4.86;67.54;101869.38;102392;1318;95226;-78
2021/12/18 05:20:06;;;;;;;1.00;1.00;;;;;;;4.88;67.53;101861.67;102057;1318;139127;-78
2021/12/18 05:22:34;;;;;;;0.90;0.90;;;;;;;4.95;67.32;101856.89;102245;1320;110080;-78
2021/12/18 05:25:03;;;;;;;0.90;0.90;;;;;;;4.94;67.33;101851.07;102006;1318;139080;-78
2021/12/18 05:27:31;;;;;;;0.90;0.90;;;;;;;4.97;67.19;101847.42;102403;1321;96063;-78
2021/12/18 05:29:59;;;;;;;0.80;0.80;;;;;;;5.02;67.09;101845.58;102471;1317;95733;-78
2021/12/18 05:32:27;;;;;;;0.80;0.80;;;;;;;5.07;67.07;101844.64;102046;1320;139907;-78
2021/12/18 05:34:55;;;;;;;0.80;0.80;;;;;;;5.07;66.90;101836.36;102240;1317;110250;-79
2021/12/18 05:39:53;;;;;;;0.90;0.90;;;;;;;4.96;67.15;101846.88;101998;1319;95773;-78
2021/12/18 05:42:21;;;;;;;1.00;1.00;;;;;;;4.96;66.97;101855.69;102113;1318;140691;-78
2021/12/18 05:44:49;;;;;;;0.90;0.90;;;;;;;4.93;67.43;101859.30;102248;1319;108828;-78
2021/12/18 05:47:16;;;;;;;0.80;0.80;;;;;;;4.91;67.36;101858.02;102269;1318;95729;-78
2021/12/18 05:49:44;;;;;;;0.80;0.80;;;;;;;4.89;67.37;101863.80;101773;1318;139653;-77
2021/12/18 05:52:12;;;;;;;0.70;0.70;;;;;;;4.85;67.43;101870.60;101767;1318;108998;-78
2021/12/18 05:54:40;;;;;;;0.80;0.80;;;;;;;4.92;67.65;101866.48;101767;1318;139801;-79
2021/12/18 05:57:09;;;;;;;0.90;0.90;;;;;;;4.91;67.60;101859.10;102055;1319;95276;-77
2021/12/18 05:59:37;;;;;;;0.80;0.80;;;;;;;4.89;67.41;101867.14;101367;1319;99374;-77
2021/12/18 06:02:05;;;;;;;0.70;0.70;;;;;;;4.85;67.22;101870.76;101392;1319;139866;-77
2021/12/18 06:04:38;;;;;;;0.80;0.80;;;;;;;4.84;67.58;101870.41;101501;1320;108862;-77
2021/12/18 06:07:07;;;;;;;0.90;0.90;;;;;;;4.89;67.59;101872.95;101491;1321;139919;-77
2021/12/18 06:09:36;;;;;;;1.00;1.00;;;;;;;4.94;67.51;101863.55;101689;1318;95541;-77
2021/12/18 06:12:04;;;;;;;0.80;0.80;;;;;;;4.98;67.37;101858.36;101833;1319;108395;-78
2021/12/18 06:14:32;;;;;;;0.80;0.80;;;;;;;4.98;67.28;101862.06;101991;1318;140333;-78
2021/12/18 06:17:00;;;;;;;0.90;0.90;;;;;;;4.92;67.34;101861.21;102117;1318;96151;-78
2021/12/18 06:19:27;;;;;;;0.90;0.90;;;;;;;4.86;67.24;101857.60;102022;1319;138141;-78
2021/12/18 06:21:55;;;;;;;0.80;0.80;;;;;;;4.86;67.50;101860.73;102169;1318;109925;-78
2021/12/18 06:24:24;;;;;;;0.80;0.80;;;;;;;4.91;67.53;101856.27;102087;1317;139884;-78
2021/12/18 06:26:52;;;;;;;0.90;0.90;;;;;;;4.90;67.46;101852.73;102207;1318;95185;-77
2021/12/18 06:29:20;;;;;;;0.80;0.80;;;;;;;4.84;67.31;101854.91;102095;1318;95181;-77
2021/12/18 06:31:48;;;;;;;0.80;0.80;;;;;;;4.79;67.57;101863.59;102034;1318;140895;-79
2021/12/18 06:34:16;;;;;;;0.80;0.80;;;;;;;4.82;67.56;101864.37;102159;1318;110674;-77
2021/12/18 06:36:44;;;;;;;0.80;0.80;;;;;;;4.88;67.60;101865.20;102056;1318;139652;-78
2021/12/18 06:39:12;;;;;;;0.80;0.80;;;;;;;4.91;67.68;101871.41;102227;1314;95576;-78
2021/12/18 06:41:39;;;;;;;0.80;0.80;;;;;;;4.91;67.47;101878.09;102251;1318;109582;-78
2021/12/18 06:44:07;;;;;;;0.80;0.80;;;;;;;4.91;67.51;101871.23;102007;1318;140218;-79
2021/12/18 06:46:35;;;;;;;0.80;0.80;;;;;;;4.91;67.44;101863.85;102523;1318;95781;-78
2021/12/18 06:49:04;;;;;;;0.90;0.90;;;;;;;4.89;67.59;101856.58;102109;1317;139906;-78
2021/12/18 06:51:32;;;;;;;0.90;0.90;;;;;;;4.88;67.69;101845.47;102274;1317;110206;-78
2021/12/18 06:54:00;;;;;;;0.80;0.80;;;;;;;4.95;67.55;101845.09;102278;1317;108753;-78
2021/12/18 06:56:29;;;;;;;0.90;0.90;;;;;;;4.92;67.46;101842.92;102158;1321;140076;-78
2021/12/18 06:58:57;;;;;;;0.90;0.90;;;;;;;4.90;67.72;101838.83;102277;1318;95250;-78
2021/12/18 07:01:25;;;;;;;0.80;0.80;;;;;;;4.92;67.46;101841.51;102068;1318;139033;-77
2021/12/18 07:03:52;;;;;;;0.80;0.80;;;;;;;4.92;67.47;101845.73;102238;1317;110397;-78
2021/12/18 07:06:21;;;;;;;0.80;0.80;;;;;;;4.90;67.49;101841.64;102171;1318;141251;-78
2021/12/18 07:08:49;;;;;;;0.90;0.90;;;;;;;4.85;67.47;101836.27;102166;1318;95260;-77
2021/12/18 07:11:17;;;;;;;0.90;0.90;;;;;;;4.79;67.60;101835.64;102061;1319;109501;-78
2021/12/18 07:13:44;;;;;;;0.80;0.80;;;;;;;4.75;67.74;101826.20;102098;1319;140134;-78
2021/12/18 07:16:12;;;;;;;0.80;0.80;;;;;;;4.73;67.90;101823.36;102094;1319;95179;-78
2021/12/18 07:18:40;;;;;;;0.80;0.80;;;;;;;4.68;68.01;101826.42;101943;1320;139469;-77
2021/12/18 07:21:08;;;;;;;0.90;0.90;;;;;;;4.71;68.28;101817.52;102139;1319;107402;-78
2021/12/18 07:23:36;;;;;;;0.80;0.80;;;;;;;4.79;68.02;101813.98;102185;1318;110334;-77
2021/12/18 07:26:03;;;;;;;0.90;0.90;;;;;;;4.87;67.99;101810.27;102083;1318;138944;-78
2021/12/18 07:28:31;;;;;;;0.80;0.80;;;;;;;4.91;67.66;101809.63;102550;1317;95324;-78
2021/12/18 07:30:59;;;;;;;0.90;0.90;;;;;;;4.86;67.58;101816.93;102049;1318;138545;-77
2021/12/18 07:33:27;;;;;;;0.80;0.80;;;;;;;4.79;67.83;101821.20;102186;1319;110559;-77
2021/12/18 07:35:55;;;;;;;0.70;0.70;;;;;;;4.82;67.88;101824.77;102424;1318;95278;-78
2021/12/18 07:38:22;;;;;;;0.80;0.80;;;;;;;4.76;67.99;101825.17;102106;1320;141689;-78
2021/12/18 07:40:50;;;;;;;0.80;0.80;;;;;;;4.62;68.33;101833.33;102195;1319;109479;-78
2021/12/18 07:43:18;;;;;;;0.90;0.90;;;;;;;4.56;68.62;101834.79;102152;1321;140528;-79
2021/12/18 07:45:46;;;;;;;0.90;0.90;;;;;;;4.56;68.78;101844.10;102210;1317;95437;-79
2021/12/18 07:48:13;;;;;;;0.80;0.80;;;;;;;4.63;68.70;101850.08;102202;1321;96897;-79
2021/12/18 07:50:41;;;;;;;0.90;0.90;;;;;;;4.59;68.75;101854.73;102159;1318;139060;-79
2021/12/18 07:53:09;;;;;;;0.80;0.80;;;;;;;4.52;68.83;101854.93;102518;1320;109880;-79
2021/12/18 07:55:38;;;;;;;0.90;0.90;;;;;;;4.55;68.96;101854.98;102658;1319;140507;-78
2021/12/18 07:58:06;;;;;;;0.90;0.90;;;;;;;4.51;69.16;101858.05;102576;1318;95200;-79
2021/12/18 08:00:34;;;;;;;0.90;0.90;;;;;;;4.48;69.28;101860.80;102389;1317;139827;-79
2021/12/18 08:03:01;;;;;;;0.90;0.90;;;;;;;4.54;69.51;101853.90;102472;1319;110439;-78
2021/12/18 08:05:29;;;;;;;0.90;0.90;;;;;;;4.59;69.54;101853.85;102592;1318;95711;-79
2021/12/18 08:07:57;;;;;;;0.80;0.80;;;;;;;4.62;69.21;101855.14;102453;1318;139507;-79
2021/12/18 08:10:25;;;;;;;0.90;0.90;;;;;;;4.57;69.42;101854.34;102607;1318;108334;-79
2021/12/18 08:12:53;;;;;;;0.90;0.90;;;;;;;4.56;69.64;101850.25;102328;1318;139378;-79
2021/12/18 08:15:20;;;;;;;0.90;0.90;;;;;;;4.57;69.73;101850.30;102513;1317;95176;-79
2021/12/18 08:17:48;;;;;;;1.00;1.00;;;;;;;4.55;69.93;101848.66;102461;1318;95395;-78
2021/12/18 08:20:16;;;;;;;0.80;0.80;;;;;;;4.55;70.06;101852.16;101905;1318;140887;-78
2021/12/18 08:22:44;;;;;;;0.90;0.90;;;;;;;4.59;70.05;101853.50;102046;1319;110420;-78
2021/12/18 08:25:12;;;;;;;0.90;0.90;;;;;;;4.56;70.03;101857.12;102043;1319;140303;-79
2021/12/18 08:27:40;;;;;;;0.80;0.80;;;;;;;4.53;70.13;101853.38;102198;1316;95381;-78
2021/12/18 08:30:08;;;;;;;0.80;0.80;;;;;;;4.57;70.17;101847.13;102256;1316;108381;-79
2021/12/18 08:32:39;;;;;;;0.90;0.90;;;;;;;4.55;70.38;101834.77;102176;1318;140008;-78
2021/12/18 08:35:09;;;;;;;0.90;0.90;;;;;;;4.53;70.48;101826.79;102554;1318;95749;-77
2021/12/18 08:37:37;;;;;;;0.80;0.80;;;;;;;4.54;70.39;101822.95;102130;1313;139220;-78
2021/12/18 08:40:06;;;;;;;0.80;0.80;;;;;;;4.51;70.55;101819.73;102237;1316;109560;-78
2021/12/18 08:42:34;;;;;;;0.80;0.80;;;;;;;4.42;70.71;101816.19;102226;1317;140158;-78
2021/12/18 08:45:02;;;;;;;0.90;0.90;;;;;;;4.39;70.98;101817.35;102184;1316;95241;-78
2021/12/18 08:47:30;;;;;;;0.80;0.80;;;;;;;4.41;70.97;101813.01;102214;1318;95724;-78
2021/12/18 08:49:59;;;;;;;0.90;0.90;;;;;;;4.44;70.97;101816.42;102349;1317;140430;-78
2021/12/18 08:52:27;;;;;;;0.90;0.90;;;;;;;4.55;70.85;101818.58;102302;1316;111155;-78
2021/12/18 08:54:55;;;;;;;0.90;0.90;;;;;;;4.49;70.67;101815.46;102198;1317;137416;-79
2021/12/18 08:57:22;;;;;;;0.90;0.90;;;;;;;4.48;70.74;101811.59;102639;1317;95280;-78
2021/12/18 08:59:50;;;;;;;0.90;0.90;;;;;;;4.52;70.84;101800.94;102502;1317;109413;-78
2021/12/18 09:02:18;;;;;;;1.00;1.00;;;;;;;4.62;70.68;101791.98;102129;1317;141603;-80
2021/12/18 09:04:47;;;;;;;0.90;0.90;;;;;;;4.66;70.32;101781.86;102169;1316;95960;-78
2021/12/18 09:07:15;;;;;;;0.90;0.90;;;;;;;4.62;70.41;101772.65;101978;1316;139549;-78
2021/12/18 09:09:43;;;;;;;0.90;0.90;;;;;;;4.64;70.54;101770.59;102492;1317;109349;-78
2021/12/18 09:12:11;;;;;;;0.90;0.90;;;;;;;4.66;70.42;101768.15;102073;1317;109264;-78
2021/12/18 09:14:40;;;;;;;0.80;0.80;;;;;;;4.73;70.21;101762.83;101962;1318;140631;-79
2021/12/18 09:17:09;;;;;;;0.80;0.80;;;;;;;4.77;70.26;101762.20;102117;1316;95287;-78
2021/12/18 09:19:37;;;;;;;0.90;0.90;;;;;;;4.71;69.55;101758.73;102287;1317;142622;-78
2021/12/18 09:22:06;;;;;;;0.80;0.80;;;;;;;4.62;69.68;101757.15;102039;1318;110335;-77
2021/12/18 09:24:35;;;;;;;0.80;0.80;;;;;;;4.57;69.73;101748.79;101899;1317;140023;-78
2021/12/18 09:27:04;;;;;;;0.80;0.80;;;;;;;4.53;69.70;101743.63;102097;1318;95242;-78
2021/12/18 09:29:32;;;;;;;0.90;0.90;;;;;;;4.43;69.89;101745.53;102112;1317;109182;-78
2021/12/18 09:32:00;;;;;;;0.80;0.80;;;;;;;4.42;70.35;101738.82;102067;1318;140289;-79
2021/12/18 09:34:30;;;;;;;0.80;0.80;;;;;;;4.46;70.27;101734.67;102632;1316;96001;-79
2021/12/18 09:36:57;;;;;;;0.80;0.80;;;;;;;4.51;70.30;101729.84;102473;1316;139975;-79
2021/12/18 09:39:25;;;;;;;0.80;0.80;;;;;;;4.59;70.47;101730.17;102524;1317;109263;-78
2021/12/18 09:41:54;;;;;;;0.80;0.80;;;;;;;4.64;70.40;101725.55;102298;1317;109773;-78
2021/12/18 09:44:27;;;;;;;0.90;0.90;;;;;;;4.77;70.51;101725.09;102515;1316;140932;-78
2021/12/18 09:46:55;;;;;;;0.80;0.80;;;;;;;4.86;70.35;101731.04;102085;1318;95258;-77
2021/12/18 09:49:24;;;;;;;0.80;0.80;;;;;;;4.81;70.04;101734.66;102269;1316;140290;-79
2021/12/18 09:51:52;;;;;;;0.90;0.90;;;;;;;4.75;70.32;101732.44;102458;1316;110267;-77
2021/12/18 09:54:21;;;;;;;0.90;0.90;;;;;;;4.69;70.57;101732.48;102392;1317;142293;-81
2021/12/18 09:56:51;;;;;;;0.90;0.90;;;;;;;4.60;70.76;101728.98;102125;1316;95163;-79
2021/12/18 09:59:19;;;;;;;0.90;0.90;;;;;;;4.55;71.13;101721.14;102311;1317;109410;-78
2021/12/18 10:01:48;;;;;;;0.90;0.90;;;;;;;4.58;71.31;101716.61;102175;1316;141695;-78
2021/12/18 10:04:27;;;;;;;0.90;0.90;;;;;;;4.63;71.33;101707.39;102168;1317;95240;-78
2021/12/18 10:06:58;;;;;;;0.80;0.80;;;;;;;4.71;71.03;101704.02;102123;1317;140220;-78
2021/12/18 10:09:25;;;;;;;0.80;0.80;;;;;;;4.77;70.94;101698.52;102462;1317;108888;-78
2021/12/18 10:12:00;;;;;;;0.80;0.80;;;;;;;4.68;71.09;101696.23;102204;1317;110252;-81
2021/12/18 10:14:37;;;;;;;0.80;0.80;;;;;;;4.63;71.10;101701.06;102418;1318;139672;-78
2021/12/18 10:17:18;;;;;;;0.80;0.80;;;;;;;4.69;71.24;101695.55;102478;1313;95694;-77
2021/12/18 10:19:47;;;;;;;0.80;0.80;;;;;;;4.71;71.15;101692.41;102060;1317;139576;-78
2021/12/18 10:22:15;;;;;;;0.80;0.80;;;;;;;4.65;71.16;101688.62;102234;1316;110374;-76
2021/12/18 10:24:45;;;;;;;0.80;0.80;;;;;;;4.67;71.35;101682.66;101955;1317;140761;-77
2021/12/18 10:27:24;;;;;;;0.80;0.80;;;;;;;4.66;71.15;101683.54;102218;1318;95239;-78
2021/12/18 10:29:54;;;;;;;0.80;0.80;;;;;;;4.63;71.14;101673.27;102790;1318;109391;-79
2021/12/18 10:32:23;;;;;;;0.90;0.90;;;;;;;4.57;71.20;101671.73;102666;1314;139568;-79
2021/12/18 10:34:54;;;;;;;0.80;0.80;;;;;;;4.58;71.29;101664.56;102451;1319;95888;-78
2021/12/18 10:37:29;;;;;;;0.90;0.90;;;;;;;4.62;71.19;101663.41;102524;1321;138735;-79
2021/12/18 10:40:01;;;;;;;0.90;0.90;;;;;;;4.63;71.24;101658.14;102625;1316;109551;-79
2021/12/18 10:42:33;;;;;;;0.90;0.90;;;;;;;4.57;71.31;101647.14;102016;1317;140215;-79
2021/12/18 10:45:07;;;;;;;0.90;0.90;;;;;;;4.62;71.35;101643.89;102568;1316;95191;-79
2021/12/18 10:47:54;;;;;;;0.80;0.80;;;;;;;4.68;71.25;101643.64;102681;1318;95879;-79
2021/12/18 10:50:40;;;;;;;0.80;0.80;;;;;;;4.61;71.17;101645.98;102578;1316;138188;-79
2021/12/18 10:53:22;;;;;;;1.10;1.10;;;;;;;4.50;71.18;101640.85;102110;1317;110459;-79
2021/12/18 10:55:53;;;;;;;1.10;1.10;;;;;;;4.45;71.53;101630.55;102208;1317;139887;-78
2021/12/18 10:58:29;;;;;;;0.70;0.70;;;;;;;4.48;71.59;101627.61;102700;1317;95743;-78
2021/12/18 11:01:15;;;;;;;0.90;0.90;;;;;;;4.48;71.25;101621.46;102076;1318;138169;-78
2021/12/18 11:03:45;;;;;;;0.90;0.90;;;;;;;4.45;71.57;101608.04;102003;1318;110253;-78
2021/12/18 11:06:18;;;;;;;1.00;1.00;;;;;;;4.46;71.54;101607.02;102565;1318;95196;-78
2021/12/18 11:09:14;;;;;;;0.90;0.90;;;;;;;4.47;71.54;101601.75;102282;1316;141116;-78
2021/12/18 11:14:23;;;;;;;0.90;0.90;;;;;;;4.48;71.55;101595.96;102512;1316;139618;-79
2021/12/18 11:16:59;;;;;;;0.80;0.80;;;;;;;4.47;71.51;101584.34;102321;1316;95238;-78
2021/12/18 11:19:29;;;;;;;0.80;0.80;;;;;;;4.40;71.82;101578.41;102240;1316;139011;-78
2021/12/18 11:22:01;;;;;;;0.80;0.80;;;;;;;4.40;71.63;101585.42;102415;1317;109601;-79
2021/12/18 11:24:32;;;;;;;0.90;0.90;;;;;;;4.41;71.92;101581.08;102256;1317;138736;-79
2021/12/18 11:27:07;;;;;;;0.80;0.80;;;;;;;4.46;71.66;101575.72;102626;1317;95078;-78
2021/12/18 11:29:44;;;;;;;0.80;0.80;;;;;;;4.50;71.65;101575.07;102122;1318;95616;-79
2021/12/18 11:32:42;;;;;;;0.80;0.80;;;;;;;4.52;71.26;101572.48;102130;1317;140182;-77
2021/12/18 11:35:13;;;;;;;0.90;0.90;;;;;;;4.50;71.45;101574.38;101987;1314;108351;-79
2021/12/18 11:37:45;;;;;;;0.90;0.90;;;;;;;4.43;71.57;101571.77;102356;1318;139828;-79
2021/12/18 11:40:18;;;;;;;0.80;0.80;;;;;;;4.42;71.63;101563.31;102171;1316;95367;-78
2021/12/18 11:42:46;;;;;;;0.90;0.90;;;;;;;4.41;71.69;101564.37;102313;1318;139666;-78
2021/12/18 11:45:14;;;;;;;0.80;0.80;;;;;;;4.38;71.79;101571.33;102335;1317;109590;-78
2021/12/18 11:47:54;;;;;;;0.90;0.90;;;;;;;4.36;71.98;101564.63;101925;1318;95311;-78
2021/12/18 11:50:29;;;;;;;0.90;0.90;;;;;;;4.29;72.22;101565.20;101657;1318;139060;-77
2021/12/18 11:53:07;;;;;;;0.80;0.80;;;;;;;4.27;72.51;101559.55;102139;1319;107842;-79
2021/12/18 11:55:37;;;;;;;0.90;0.90;;;;;;;4.30;72.38;101558.19;101891;1316;139013;-78
2021/12/18 11:58:13;;;;;;;0.80;0.80;;;;;;;4.32;72.25;101559.09;102189;1320;95379;-78
2021/12/18 12:01:02;;;;;;;1.00;1.00;;;;;;;4.31;72.35;101549.77;102202;1317;140336;-78
2021/12/18 12:03:39;;;;;;;0.90;0.90;;;;;;;4.37;72.48;101551.11;102018;1316;109254;-78
2021/12/18 12:06:20;;;;;;;0.90;0.90;;;;;;;4.35;72.34;101543.86;102171;1317;109823;-78
2021/12/18 12:08:51;;;;;;;0.80;0.80;;;;;;;4.35;72.39;101538.77;102334;1317;139711;-80
2021/12/18 12:11:23;;;;;;;0.90;0.90;;;;;;;4.35;72.59;101528.56;102680;1317;95168;-79
2021/12/18 12:14:08;;;;;;;0.90;0.90;;;;;;;4.39;72.66;101516.85;102623;1316;140591;-78
2021/12/18 12:16:42;;;;;;;0.90;0.90;;;;;;;4.53;72.30;101511.46;102638;1318;109826;-80
2021/12/18 12:19:13;;;;;;;0.80;0.80;;;;;;;4.52;72.23;101510.39;102264;1316;140884;-79
2021/12/18 12:21:47;;;;;;;0.80;0.80;;;;;;;4.50;72.29;101501.02;102814;1318;95255;-80
2021/12/18 12:24:21;;;;;;;0.90;0.90;;;;;;;4.45;72.40;101496.38;102691;1316;109427;-78
2021/12/18 12:26:49;;;;;;;0.80;0.80;;;;;;;4.49;72.44;101490.98;102588;1317;139687;-77